Mason Valley Wildlife Refuge, Nevada Weather observations

Data are for 10 minute period ending at time listed.
 Day   Time   Solar   Ave.   Ave.  Ave.  Vector  Max.   Baro.   Total    
  of    of     Rad.   Air    Rel.  Wind   Wind   Wind  Press.  Precip.   
Year   Day            Temp.  Hum.  Speed  Dir.   Gust                    
2015   (PST)  Kw/m2    F      %     mph   deg.    mph    mb.     in.     
-------------------------------------------------------------------------
 183    9:50   100.00  99999.0   99999  99999.0   99999   99999.0   99999.0   99999.00 
 183   10:00   100.00  99999.0   99999  99999.0   99999   99999.0   99999.0   99999.00 
 183   10:10   100.00  99999.0   99999  99999.0   99999   99999.0   99999.0   99999.00 
 183   10:20   100.00  99999.0   99999  99999.0   99999   99999.0   99999.0   99999.00 
 183   10:30   100.00  99999.0   99999  99999.0   99999   99999.0   99999.0   99999.00 
 183   10:40   100.00  99999.0   99999  99999.0   99999   99999.0   99999.0   99999.00 
 183   10:50   100.00  99999.0   99999  99999.0   99999   99999.0   99999.0   99999.00 
 183   11:00   100.00  99999.0   99999  99999.0   99999   99999.0   99999.0   99999.00 
 183   11:10   100.00  99999.0   99999  99999.0   99999   99999.0   99999.0   99999.00 
 183   11:20   100.00  99999.0   99999  99999.0   99999   99999.0   99999.0   99999.00 
 183   11:30   100.00  99999.0   99999  99999.0   99999   99999.0   99999.0   99999.00 
 183   11:40   100.00  99999.0   99999  99999.0   99999   99999.0   99999.0   99999.00 
 183   11:50   100.00  99999.0   99999  99999.0   99999   99999.0   99999.0   99999.00 
 183   12:00   100.00  99999.0   99999  99999.0   99999   99999.0   99999.0   99999.00 
 183   12:10   100.00  99999.0   99999  99999.0   99999   99999.0   99999.0   99999.00 
 183   12:20   100.00  99999.0   99999  99999.0   99999   99999.0   99999.0   99999.00 
 183   12:30   100.00  99999.0   99999  99999.0   99999   99999.0   99999.0   99999.00 
 183   12:40   100.00  99999.0   99999  99999.0   99999   99999.0   99999.0   99999.00 
 183   12:50   100.00  99999.0   99999  99999.0   99999   99999.0   99999.0   99999.00 
 183   13:00   100.00  99999.0   99999  99999.0   99999   99999.0   99999.0   99999.00 
 183   13:10   100.00  99999.0   99999  99999.0   99999   99999.0   99999.0   99999.00 
 183   13:20   100.00  99999.0   99999  99999.0   99999   99999.0   99999.0   99999.00 
 183   13:30   100.00  99999.0   99999  99999.0   99999   99999.0   99999.0   99999.00 
 183   13:40   100.00  99999.0   99999  99999.0   99999   99999.0   99999.0   99999.00 
 183   13:50   100.00  99999.0   99999  99999.0   99999   99999.0   99999.0   99999.00 
 183   14:00   100.00  99999.0   99999  99999.0   99999   99999.0   99999.0   99999.00 
 183   14:10   100.00  99999.0   99999  99999.0   99999   99999.0   99999.0   99999.00 
 183   14:20   100.00  99999.0   99999  99999.0   99999   99999.0   99999.0   99999.00 
 183   14:30   100.00  99999.0   99999  99999.0   99999   99999.0   99999.0   99999.00 
 183   14:40   100.00  99999.0   99999  99999.0   99999   99999.0   99999.0   99999.00 
 183   14:50   0.23   90.9    24    7.5    87    14.8   867.3    0.00 
 183   15:00   0.25   90.8    24    7.8   103    13.2   867.2    0.00 
 183   15:10   0.40   91.1    23    8.1   102    14.0   867.1    0.00 
 183   15:20   0.29   90.7    23    6.9   103    11.8   867.1    0.00 
 183   15:30   0.10   91.1    23    6.5    85    14.3   867.0    0.00 
 183   15:40   100.00  99999.0   99999  99999.0   99999   99999.0   99999.0   99999.00 
 183   15:50   0.32   91.4    22    5.6    99    11.8   866.8    0.00 
 183   16:00   0.06   91.0    24    5.5    86    10.2   866.9    0.00 
 183   16:10   0.20   90.4    23    6.0    91     9.1   866.9    0.00 
 183   16:20   0.15   91.1    23    4.5    97     8.6   866.9    0.00 
 183   16:30   0.01   90.8    24    3.6    62     7.7   866.7    0.00 
 183   16:40   0.19   90.4    24    5.1    73     8.8   866.6    0.00 
 183   16:50   0.01   90.6    22    5.0    95     8.8   866.6    0.00 
 183   17:00   0.11   90.7    22    3.4   182     5.8   866.6    0.00 
 183   17:10   0.08   87.1    31    8.0   240    15.0   866.7    0.00 
 183   17:20   0.10   83.8    36   11.0   191    22.1   867.0    0.00 
 183   17:30   0.04   83.4    35   13.9   186    22.5   867.1    0.00 
 183   17:40   0.06   81.6    38   13.5   187    19.8   867.2    0.00 
 183   17:50   0.26   82.1    38   14.6   187    22.3   867.3    0.00 
 183   18:00   0.06   82.3    38   12.9   196    20.5   867.6    0.00 
 183   18:10   0.10   82.5    36   11.7   208    20.0   867.7    0.00 
 183   18:20   0.03   81.7    37    8.8   207    16.9   867.7    0.00 
 183   18:30   0.03   81.6    35    8.0   218    12.9   867.6    0.00 
 183   18:40   0.05   81.7    36    4.8   254     8.9   867.6    0.00 
 183   18:50   0.03   81.1    37    4.2   261     9.1   867.4    0.00 
 183   19:00   0.01   81.2    34    5.9   250    14.4   867.5    0.00 
 183   19:10   0.00   81.1    34    6.1   241     9.9   867.6    0.00 
 183   19:20   0.00   80.8    36    4.3   222     6.8   867.6    0.00 
 183   19:30   0.00   79.8    39    4.3   251     7.9   867.4    0.00 
 183   19:40   0.00   78.7    42    1.7   206     3.1   867.4    0.00 
 183   19:50   0.00   77.6    46    2.5   234     3.5   867.5    0.00 
 183   20:00   0.00   77.5    45    2.6   116     3.9   867.9    0.00 
 183   20:10   0.00   78.1    42    3.5   103     5.5   868.3    0.00 
 183   20:20   0.00   77.8    45    2.1   115     3.9   868.7    0.00 
 183   20:30   0.00   76.2    49    4.2    42     7.1   869.1    0.00 
 183   20:40   0.00   75.9    52    6.4    24    13.2   869.4    0.00 
 183   20:50   0.00   75.0    55    9.1   341    19.5   869.4    0.00 
 183   21:00   0.00   75.6    54    6.1   335    11.6   869.7    0.00 
 183   21:10   0.00   74.8    56    6.2   348    11.2   870.0    0.00 
 183   21:20   0.00   73.5    60    5.2     6    12.1   870.2    0.00 
 183   21:30   0.00   73.7    59    2.0   314     4.0   870.3    0.00 
 183   21:40   0.00   72.5    63    2.4   218     4.5   870.5    0.00 
 183   21:50   100.00  99999.0   99999  99999.0   99999   99999.0   99999.0   99999.00 
 183   22:00   100.00  99999.0   99999  99999.0   99999   99999.0   99999.0   99999.00 
 183   22:10   100.00  99999.0   99999  99999.0   99999   99999.0   99999.0   99999.00 
 183   22:20   100.00  99999.0   99999  99999.0   99999   99999.0   99999.0   99999.00 
 183   22:30   100.00  99999.0   99999  99999.0   99999   99999.0   99999.0   99999.00 
 183   22:40   100.00  99999.0   99999  99999.0   99999   99999.0   99999.0   99999.00 
 183   22:50   100.00  99999.0   99999  99999.0   99999   99999.0   99999.0   99999.00 
 183   23:00   100.00  99999.0   99999  99999.0   99999   99999.0   99999.0   99999.00 
 183   23:10   100.00  99999.0   99999  99999.0   99999   99999.0   99999.0   99999.00 
 183   23:20   100.00  99999.0   99999  99999.0   99999   99999.0   99999.0   99999.00 
 183   23:30   100.00  99999.0   99999  99999.0   99999   99999.0   99999.0   99999.00 
 183   23:40   100.00  99999.0   99999  99999.0   99999   99999.0   99999.0   99999.00 
 183   23:50   100.00  99999.0   99999  99999.0   99999   99999.0   99999.0   99999.00 
 184    0:00   100.00  99999.0   99999  99999.0   99999   99999.0   99999.0   99999.00 
 184    0:10   100.00  99999.0   99999  99999.0   99999   99999.0   99999.0   99999.00 
 184    0:20   100.00  99999.0   99999  99999.0   99999   99999.0   99999.0   99999.00 
 184    0:30   100.00  99999.0   99999  99999.0   99999   99999.0   99999.0   99999.00 
 184    0:40   100.00  99999.0   99999  99999.0   99999   99999.0   99999.0   99999.00 
 184    0:50   100.00  99999.0   99999  99999.0   99999   99999.0   99999.0   99999.00 
 184    1:00   100.00  99999.0   99999  99999.0   99999   99999.0   99999.0   99999.00 
 184    1:10   100.00  99999.0   99999  99999.0   99999   99999.0   99999.0   99999.00 
 184    1:20   100.00  99999.0   99999  99999.0   99999   99999.0   99999.0   99999.00 
 184    1:30   100.00  99999.0   99999  99999.0   99999   99999.0   99999.0   99999.00 
 184    1:40   100.00  99999.0   99999  99999.0   99999   99999.0   99999.0   99999.00 
 184    1:50   100.00  99999.0   99999  99999.0   99999   99999.0   99999.0   99999.00 
 184    2:00   100.00  99999.0   99999  99999.0   99999   99999.0   99999.0   99999.00 
 184    2:10   100.00  99999.0   99999  99999.0   99999   99999.0   99999.0   99999.00 
 184    2:20   100.00  99999.0   99999  99999.0   99999   99999.0   99999.0   99999.00 
 184    2:30   100.00  99999.0   99999  99999.0   99999   99999.0   99999.0   99999.00 
 184    2:40   100.00  99999.0   99999  99999.0   99999   99999.0   99999.0   99999.00 
 184    2:50   0.00   65.2    82    2.2   174     5.2   869.0    0.00 
 184    3:00   0.00   64.6    82    2.1   213     4.0   868.9    0.00 
 184    3:10   0.00   65.3    82    2.2   205     4.9   868.9    0.00 
 184    3:20   0.00   65.6    81    1.3   199     5.2   868.9    0.00 
 184    3:30   0.00   65.8    81    3.3   214     6.9   869.1    0.00 
 184    3:40   100.00  99999.0   99999  99999.0   99999   99999.0   99999.0   99999.00 
 184    3:50   0.00   65.1    80    1.8   286     2.9   869.1    0.00 
 184    4:00   0.00   65.2    79    1.8   302     2.9   869.2    0.00 
 184    4:10   0.00   64.3    79    1.6    16     2.1   869.4    0.00 
 184    4:20   0.00   63.5    82    1.6   344     3.7   869.5    0.00 
 184    4:30   0.00   63.1    83    0.8   334     3.1   869.5    0.00 
 184    4:40   0.00   63.3    82    2.3   328     3.7   869.6    0.00 
 184    4:50   0.01   64.4    79    1.6   291     3.1   869.5    0.00 
 184    5:00   0.02   63.5    83    2.0   211     4.4   869.6    0.00 
 184    5:10   0.03   62.1    85    1.7    14     3.1   869.8    0.00 
 184    5:20   0.04   62.5    86    1.9   315     3.4   869.8    0.00 
 184    5:30   0.06   65.5    83    0.7   214     2.3   869.9    0.00 
 184    5:40   0.07   66.1    81    1.0   317     2.0   869.8    0.00 
 184    5:50   0.08   68.6    79    0.6   261     5.0   869.8    0.00 
 184    6:00   0.08   68.9    74    3.5   219     4.7   869.9    0.00 
 184    6:10   0.08   69.0    75    2.0   220     4.2   869.9    0.00 
 184    6:20   0.17   70.2    74    1.8   206     3.9   869.8    0.00 
 184    6:30   0.15   70.9    70    2.4   225     4.2   869.8    0.00 
 184    6:40   0.16   71.4    69    2.0   226     3.5   869.7    0.00 
 184    6:50   0.14   71.7    68    2.5   164     4.1   869.7    0.00 
 184    7:00   0.22   71.8    68    2.5   138     3.7   869.7    0.00 
 184    7:10   0.27   72.6    67    2.8   152     4.0   869.6    0.00 
 184    7:20   0.24   73.3    64    2.1   153     4.1   869.6    0.00 
 184    7:30   0.06   73.0    64    3.1   148     4.7   869.6    0.00 
 184    7:40   0.30   73.3    65    3.1   155     4.7   869.6    0.00 
 184    7:50   0.50   75.0    62    4.4   165     6.4   869.5    0.00 
 184    8:00   0.55   76.1    58    4.2   162     6.6   869.5    0.00 
 184    8:10   0.55   77.1    55    4.0   182     6.3   869.5    0.00 
 184    8:20   0.55   77.8    52    2.7   196     5.1   869.4    0.00 
 184    8:30   0.51   78.4    54    3.4   186     6.1   869.4    0.00 
 184    8:40   0.65   79.0    53    3.2   166     6.4   869.4    0.00 
 184    8:50   0.62   80.0    54    2.7   251     6.4   869.3    0.00 
 184    9:00   0.32   79.4    55    2.8   213     5.8   869.3    0.00 
 184    9:10   0.75   81.4    50    2.8   243     5.9   869.1    0.00 
 184    9:20   0.63   81.1    48    3.1   217     7.0   869.0    0.00 
 184    9:30   0.76   81.9    47    0.8   339     2.6   869.0    0.00 
 184    9:40   0.78   83.4    43    1.3   230     3.9   868.9    0.00 

Return to Mason Valley Wildlife Refuge graphs page.


Western Regional Climate Center,wrcc@dri.edu